createdAt,value
2023-03-29T00:02:05.570Z,87.51
2023-03-29T00:07:05.526Z,87.19
2023-03-29T00:12:05.458Z,86.77
2023-03-29T00:17:05.481Z,86.46
2023-03-29T00:22:05.390Z,87.19
2023-03-29T00:27:05.365Z,87.09
2023-03-29T00:32:05.326Z,86.99
2023-03-29T00:37:05.318Z,86.88
2023-03-29T00:42:05.287Z,86.88
2023-03-29T00:47:05.256Z,86.77
2023-03-29T00:52:05.252Z,86.32
2023-03-29T00:57:05.273Z,86.21
2023-03-29T01:02:05.247Z,86.32
2023-03-29T01:07:05.199Z,86.32
2023-03-29T01:12:05.147Z,85.80
2023-03-29T01:17:05.127Z,86.11
2023-03-29T01:22:05.099Z,85.27
2023-03-29T01:27:05.077Z,84.92
2023-03-29T01:32:05.167Z,85.90
2023-03-29T01:37:05.000Z,85.52
2023-03-29T01:42:04.987Z,85.52
2023-03-29T01:47:04.953Z,85.42
2023-03-29T01:52:04.915Z,85.06
2023-03-29T01:57:05.013Z,84.65
2023-03-29T02:02:04.932Z,83.67
2023-03-29T02:07:04.870Z,83.04
2023-03-29T02:12:04.851Z,82.63
2023-03-29T02:17:04.814Z,82.73
2023-03-29T02:22:04.780Z,83.15
2023-03-29T02:27:04.773Z,83.53
2023-03-29T02:32:04.720Z,82.84
2023-03-29T02:37:04.679Z,83.15
2023-03-29T02:42:04.665Z,83.15
2023-03-29T02:47:04.640Z,83.04
2023-03-29T02:52:04.607Z,81.79
2023-03-29T02:57:04.630Z,81.79
2023-03-29T03:02:04.543Z,81.90
2023-03-29T03:07:04.533Z,81.59
2023-03-29T03:12:04.504Z,81.59
2023-03-29T03:17:05.014Z,81.79
2023-03-29T03:22:04.468Z,82.00
2023-03-29T03:27:04.403Z,82.10
2023-03-29T03:32:04.527Z,81.79
2023-03-29T03:37:04.325Z,82.10
2023-03-29T03:42:07.850Z,81.38
2023-03-29T03:47:04.301Z,81.48
2023-03-29T03:52:04.282Z,81.38
2023-03-29T03:57:04.289Z,80.82
2023-03-29T04:02:04.244Z,81.02
2023-03-29T04:07:04.247Z,80.96
2023-03-29T04:12:04.215Z,81.16
2023-03-29T04:17:04.204Z,81.59
2023-03-29T04:22:04.159Z,81.27
2023-03-29T04:27:04.157Z,81.16
2023-03-29T04:32:04.145Z,80.85
2023-03-29T04:37:04.121Z,80.96
2023-03-29T04:42:04.121Z,80.54
2023-03-29T04:47:04.112Z,80.23
2023-03-29T04:52:04.069Z,79.88
2023-03-29T04:57:04.096Z,78.94
2023-03-29T05:02:04.172Z,78.17
2023-03-29T05:07:04.012Z,77.20
2023-03-29T05:12:03.998Z,76.65
2023-03-29T05:17:04.034Z,76.43
2023-03-29T05:22:03.954Z,76.61
2023-03-29T05:27:03.938Z,75.78
2023-03-29T05:32:03.984Z,75.98
2023-03-29T05:37:03.856Z,76.09
2023-03-29T05:42:03.845Z,76.09
2023-03-29T05:47:03.794Z,76.72
2023-03-29T05:52:03.760Z,75.74
2023-03-29T05:57:03.744Z,76.47
2023-03-29T06:02:03.731Z,75.50
2023-03-29T06:07:03.685Z,75.88
2023-03-29T06:12:03.756Z,75.74
2023-03-29T06:17:03.686Z,75.43
2023-03-29T06:22:03.632Z,73.53
2023-03-29T06:27:03.600Z,73.91
2023-03-29T06:32:03.560Z,72.66
2023-03-29T06:37:03.546Z,73.05
2023-03-29T06:42:12.965Z,71.56
2023-03-29T06:47:03.445Z,71.22
2023-03-29T06:52:03.405Z,70.76
2023-03-29T06:57:03.402Z,70.01
2023-03-29T07:02:03.388Z,68.94
2023-03-29T07:07:03.313Z,68.36
2023-03-29T07:12:03.268Z,67.82
2023-03-29T07:17:03.227Z,66.72
2023-03-29T07:22:03.195Z,65.97
2023-03-29T07:27:04.729Z,65.76
2023-03-29T07:32:03.179Z,65.86
2023-03-29T07:37:03.124Z,66.04
2023-03-29T07:42:03.110Z,64.74
2023-03-29T07:47:03.177Z,64.09
2023-03-29T07:52:03.052Z,64.50
2023-03-29T07:57:03.431Z,63.69
2023-03-29T08:02:04.661Z,62.95
2023-03-29T08:07:02.954Z,63.15
2023-03-29T08:12:03.960Z,64.11
2023-03-29T08:17:03.096Z,63.25
2023-03-29T08:22:02.921Z,62.58
2023-03-29T08:27:02.900Z,61.72
2023-03-29T08:32:05.066Z,60.85
2023-03-29T08:37:03.797Z,60.79
2023-03-29T08:42:02.779Z,57.64
2023-03-29T08:47:02.766Z,59.48
2023-03-29T08:52:02.805Z,57.87
2023-03-29T08:57:02.788Z,58.69
2023-03-29T09:02:03.011Z,59.66
2023-03-29T09:07:02.717Z,60.33
2023-03-29T09:12:02.587Z,61.29
2023-03-29T09:17:02.520Z,60.21
2023-03-29T09:22:02.512Z,59.80
2023-03-29T09:27:02.494Z,60.31
2023-03-29T09:32:02.631Z,61.11
2023-03-29T09:37:04.216Z,61.57
2023-03-29T09:42:02.621Z,59.46
2023-03-29T09:47:02.583Z,52.22
2023-03-29T09:52:04.182Z,51.20
2023-03-29T09:57:02.536Z,56.43
2023-03-29T10:02:02.784Z,50.47
2023-03-29T10:07:02.260Z,49.88
2023-03-29T10:12:02.403Z,51.68
2023-03-29T10:17:02.243Z,53.52
2023-03-29T10:22:02.185Z,54.87
2023-03-29T10:27:03.507Z,55.82
2023-03-29T10:32:02.404Z,55.41
2023-03-29T10:37:02.278Z,54.80
2023-03-29T10:42:02.120Z,55.69
2023-03-29T10:47:02.147Z,54.33
2023-03-29T10:52:02.064Z,54.80
2023-03-29T10:57:02.222Z,56.33
2023-03-29T11:02:02.243Z,55.18
2023-03-29T11:07:01.903Z,55.94
2023-03-29T11:12:14.995Z,55.30
2023-03-29T11:17:01.933Z,54.03
2023-03-29T11:22:03.716Z,52.88
2023-03-29T11:27:04.057Z,52.73
2023-03-29T11:32:01.784Z,52.01
2023-03-29T11:37:02.770Z,53.77
2023-03-29T11:42:04.899Z,51.68
2023-03-29T11:47:01.728Z,52.20
2023-03-29T11:52:01.606Z,55.05
2023-03-29T11:57:01.617Z,57.48
2023-03-29T12:02:02.241Z,57.58
2023-03-29T12:07:01.505Z,57.38
2023-03-29T12:12:01.486Z,57.53
2023-03-29T12:17:04.649Z,56.35
2023-03-29T12:22:01.570Z,55.28
2023-03-29T12:27:01.426Z,54.77
2023-03-29T12:32:02.292Z,54.03
2023-03-29T12:37:01.332Z,50.55
2023-03-29T12:42:01.305Z,50.78
2023-03-29T12:47:01.348Z,53.11
2023-03-29T12:52:01.259Z,54.26
2023-03-29T12:57:01.325Z,54.41
2023-03-29T13:02:01.345Z,54.11
2023-03-29T13:07:01.156Z,54.31
2023-03-29T13:12:01.239Z,55.38
2023-03-29T13:17:05.846Z,54.94
2023-03-29T13:22:01.065Z,54.03
2023-03-29T13:27:01.778Z,54.85
2023-03-29T13:32:01.917Z,55.46
2023-03-29T13:37:02.257Z,55.69
2023-03-29T13:42:00.905Z,57.24
2023-03-29T13:47:01.020Z,58.83
2023-03-29T13:52:00.903Z,58.55
2023-03-29T13:57:01.056Z,59.27
2023-03-29T14:02:00.793Z,58.67
2023-03-29T14:07:03.473Z,57.52
2023-03-29T14:12:02.234Z,56.88
2023-03-29T14:17:01.046Z,56.65
2023-03-29T14:22:00.776Z,58.01
2023-03-29T14:27:02.387Z,58.51
2023-03-29T14:32:00.644Z,58.64
2023-03-29T14:37:00.610Z,58.72
2023-03-29T14:42:02.119Z,58.62
2023-03-29T14:47:02.227Z,59.26
2023-03-29T14:52:00.477Z,59.43
2023-03-29T14:57:00.607Z,60.25
2023-03-29T15:02:02.163Z,59.94
2023-03-29T15:07:00.380Z,61.19
2023-03-29T15:12:00.813Z,60.69
2023-03-29T15:17:03.175Z,60.76
2023-03-29T15:22:01.803Z,61.16
2023-03-29T15:27:03.014Z,60.78
2023-03-29T15:32:00.302Z,61.60
2023-03-29T15:37:00.270Z,62.24
2023-03-29T15:42:00.219Z,62.45
2023-03-29T15:47:00.272Z,63.19
2023-03-29T15:52:00.323Z,64.01
2023-03-29T15:57:01.874Z,64.31
2023-03-29T16:02:00.204Z,64.01
2023-03-29T16:07:00.038Z,63.90
2023-03-29T16:11:59.995Z,64.31
2023-03-29T16:17:01.221Z,64.52
2023-03-29T16:21:59.942Z,65.16
2023-03-29T16:26:59.955Z,65.16
2023-03-29T16:31:59.888Z,65.77
2023-03-29T16:36:59.829Z,65.88
2023-03-29T16:41:59.793Z,66.49
2023-03-29T16:46:59.752Z,66.69
2023-03-29T16:51:59.786Z,67.03
2023-03-29T16:56:59.728Z,67.34
2023-03-29T17:01:59.716Z,67.54
2023-03-29T17:06:59.621Z,67.95
2023-03-29T17:11:59.630Z,68.26
2023-03-29T17:16:59.596Z,69.31
2023-03-29T17:21:59.556Z,69.21
2023-03-29T17:26:59.511Z,69.72
2023-03-29T17:32:02.148Z,70.16
2023-03-29T17:36:59.463Z,70.78
2023-03-29T17:41:59.420Z,70.98
2023-03-29T17:46:59.409Z,70.67
2023-03-29T17:51:59.390Z,71.19
2023-03-29T17:56:59.320Z,71.53
2023-03-29T18:01:59.277Z,71.62
2023-03-29T18:06:59.921Z,72.45
2023-03-29T18:11:59.201Z,72.86
2023-03-29T18:16:59.176Z,74.60
2023-03-29T18:21:59.109Z,75.21
2023-03-29T18:26:59.091Z,75.72
2023-03-29T18:31:59.068Z,76.23
2023-03-29T18:36:59.001Z,76.54
2023-03-29T18:41:58.957Z,77.46
2023-03-29T18:46:58.918Z,77.76
2023-03-29T18:51:58.915Z,78.38
2023-03-29T18:56:59.372Z,78.69
2023-03-29T19:01:58.938Z,79.03
2023-03-29T19:06:58.808Z,80.09
2023-03-29T19:11:59.412Z,80.30
2023-03-29T19:16:58.740Z,80.51
2023-03-29T19:22:00.816Z,80.91
2023-03-29T19:26:58.725Z,81.32
2023-03-29T19:31:58.918Z,81.01
2023-03-29T19:36:59.213Z,81.52
2023-03-29T19:41:58.628Z,81.63
2023-03-29T19:46:58.675Z,82.04
2023-03-29T19:51:58.543Z,82.14
2023-03-29T19:56:58.544Z,82.24
2023-03-29T20:01:58.630Z,82.35
2023-03-29T20:06:58.531Z,82.55
2023-03-29T20:11:58.483Z,82.76
2023-03-29T20:16:58.906Z,82.55
2023-03-29T20:21:58.402Z,82.79
2023-03-29T20:26:58.354Z,83.00
2023-03-29T20:31:58.432Z,82.90
2023-03-29T20:36:58.369Z,82.90
2023-03-29T20:41:58.280Z,83.20
2023-03-29T20:46:58.239Z,83.10
2023-03-29T20:51:58.212Z,83.31
2023-03-29T20:56:58.165Z,83.41
2023-03-29T21:01:58.176Z,83.72
2023-03-29T21:06:58.680Z,83.82
2023-03-29T21:11:58.072Z,83.61
2023-03-29T21:16:58.014Z,83.82
2023-03-29T21:21:58.013Z,83.82
2023-03-29T21:26:57.947Z,83.72
2023-03-29T21:31:57.956Z,83.86
2023-03-29T21:36:57.891Z,83.86
2023-03-29T21:41:57.856Z,83.55
2023-03-29T21:46:57.889Z,83.45
2023-03-29T21:51:57.786Z,83.45
2023-03-29T21:56:57.788Z,83.55
2023-03-29T22:01:57.764Z,83.04
2023-03-29T22:06:57.697Z,82.93
2023-03-29T22:11:57.645Z,82.63
2023-03-29T22:16:57.645Z,82.93
2023-03-29T22:21:57.588Z,82.97
2023-03-29T22:26:57.530Z,83.07
2023-03-29T22:31:57.605Z,83.07
2023-03-29T22:36:57.433Z,82.87
2023-03-29T22:41:57.383Z,82.36
2023-03-29T22:46:57.334Z,82.73
2023-03-29T22:51:57.347Z,83.34
2023-03-29T22:56:57.296Z,84.72
2023-03-29T23:01:57.394Z,83.90
2023-03-29T23:06:57.218Z,84.20
2023-03-29T23:11:57.173Z,85.54
2023-03-29T23:16:57.132Z,87.28
2023-03-29T23:21:57.082Z,88.24
2023-03-29T23:26:57.076Z,89.83
2023-03-29T23:31:57.146Z,90.03
2023-03-29T23:36:57.054Z,90.55
2023-03-29T23:41:57.018Z,90.65
2023-03-29T23:46:57.062Z,90.85
2023-03-29T23:51:57.002Z,91.37
2023-03-29T23:56:56.951Z,91.37
